Terminal Aerodrome Forecast
Issued by NWS Twin Cities, MN

Home | Current Version | Previous Version | Graphics & Text | Print | Product List | Glossary On
Versions: 1 2 3 4 5 6 7 8 9 10 11 12 13 14 15 16 17 18 19 20 21 22 23 24
791
FTUS43 KMPX 290852 AAA
TAFMSP
TAF AMD
KMSP 290852Z 2909/3012 03003KT P6SM SCT012 BKN040
      TEMPO 2911/2913 3SM BR
     FM291400 05006KT P6SM SCT015 BKN100=

USA.gov is the U.S. government's official web portal to all federal, state and local government web resources and services.